Big Piney, WY weather

Big Piney-Marbleton Airport (AMOS), Big Piney, WY: 4/20/2014 06:53
Visibility10 statute milesclear sky
View 7-Day Forecast
Area Summary
Sky/CloudsSky Clear
Weather [last 24 hours]None
Pressure30.14 in.Hg (1021 hPa)
Dew Point19 F (-7.2 C)
Relative Humidity77.8 %
Temperature25 F (-3.9 C)blue thermometer
Wind Chill20.7 F (-6.27 C)
Reading TimeMinimum to Maximum Temperature
6-hr ending 4/20@05:5323 F to 34 F (-5 C to 1.1 C)
6-hr ending 4/19@23:5333.1 F to 60.1 F (0.6 C to 15.6 C)
6-hr ending 4/19@17:5351.1 F to 63 F (10.6 C to 17.2 C)
6-hr ending 4/19@11:5317.1 F to 53.1 F (-8.3 C to 11.7 C)
24-hr ending 4/20@00:5317.1 F to 63 F (-8.3 C to 17.2 C)
Wind3.45 MPH (3 KT) green arrow pointing 67.5 degrees
Wind FromEast/Northeast (070 Degrees)
Rolling 24-hr Peak Wind31.1 MPH (27 KT) on 4/19@14:47
Rolling 24-hr Peak Wind FromWest/Southwest (250 Degrees)
Twilight Begins06:00Sunshine Yesterday
Sunrise06:30N/A
Sunset20:09
Twilight Ends20:39
METARKBPI 201253Z AUTO 07003KT 10SM CLR M04/M07 A3014 RMK AO2 SLP173 T10391072
Tags: